Time;durP1;ratioP1;P1;durP2;ratioP2;P2;SDS_P1;SDS_P2;PMS_P1;PMS_P2;Temp;Humidity;BMP_temperature;BMP_pressure;BME280_temperature;BME280_humidity;BME280_pressure;Samples;Min_cycle;Max_cycle;Signal;HPM_P1;HPM_P2
2021/01/31 00:00:17;;;;;;;18.30;9.20;;;-5.10;99.90;;;;;;4986775;28;20223;-54
2021/01/31 00:02:42;;;;;;;15.80;9.27;;;-5.20;99.90;;;;;;4975945;28;20884;-51
2021/01/31 00:05:09;;;;;;;15.80;9.07;;;-5.30;99.90;;;;;;4986580;28;20253;-55
2021/01/31 00:07:35;;;;;;;14.93;9.90;;;-5.30;99.90;;;;;;4974115;28;21476;-55
2021/01/31 00:10:00;;;;;;;12.93;9.17;;;-5.30;99.90;;;;;;4990286;28;20202;-56
2021/01/31 00:12:26;;;;;;;12.70;8.57;;;-5.30;99.90;;;;;;4985506;28;20193;-57
2021/01/31 00:14:51;;;;;;;14.47;9.10;;;-5.40;99.90;;;;;;4984048;28;20262;-55
2021/01/31 00:17:17;;;;;;;11.53;8.03;;;-5.40;99.90;;;;;;4982306;28;20187;-57
2021/01/31 00:19:42;;;;;;;13.40;8.53;;;-5.40;99.90;;;;;;4981426;28;20311;-57
2021/01/31 00:22:08;;;;;;;12.60;7.93;;;-5.50;99.90;;;;;;4983916;28;20194;-56
2021/01/31 00:24:33;;;;;;;10.67;7.17;;;-5.50;99.90;;;;;;4977435;28;20821;-56
2021/01/31 00:26:58;;;;;;;10.77;7.47;;;-5.50;99.90;;;;;;4989207;28;20201;-56
2021/01/31 00:29:25;;;;;;;10.17;6.97;;;-5.60;99.90;;;;;;4979665;28;20204;-55
2021/01/31 00:31:51;;;;;;;11.97;7.33;;;-5.60;99.90;;;;;;4980873;28;20187;-52
2021/01/31 00:34:20;;;;;;;12.43;7.53;;;-5.70;99.90;;;;;;4981889;28;20428;-57
2021/01/31 00:36:46;;;;;;;10.50;7.13;;;-5.80;99.90;;;;;;4982885;28;20241;-52
2021/01/31 00:39:13;;;;;;;8.80;6.53;;;-5.80;99.90;;;;;;4980725;28;20186;-58
2021/01/31 00:41:39;;;;;;;11.87;6.37;;;-5.80;99.90;;;;;;4976058;28;20422;-51
2021/01/31 00:44:06;;;;;;;8.87;5.60;;;-5.80;99.90;;;;;;4984960;28;20241;-55
2021/01/31 00:46:34;;;;;;;9.63;5.80;;;-5.80;99.90;;;;;;4980751;28;20213;-52
2021/01/31 00:48:59;;;;;;;9.80;5.83;;;-5.80;99.90;;;;;;4983238;28;20333;-57
2021/01/31 00:51:25;;;;;;;9.97;6.80;;;-5.90;99.90;;;;;;4979806;28;20548;-57
2021/01/31 00:53:50;;;;;;;11.50;6.87;;;-5.90;99.90;;;;;;4982445;28;20614;-56
2021/01/31 00:56:16;;;;;;;12.20;7.30;;;-5.80;99.90;;;;;;4977868;28;20233;-54
2021/01/31 00:58:44;;;;;;;12.30;7.47;;;-5.80;99.90;;;;;;4986703;28;20209;-56
2021/01/31 01:01:09;;;;;;;14.83;8.10;;;-5.70;99.90;;;;;;4984305;28;20210;-57
2021/01/31 01:03:35;;;;;;;13.97;9.17;;;-5.70;99.90;;;;;;4979769;28;20774;-53
2021/01/31 01:06:00;;;;;;;17.70;8.63;;;-5.70;99.90;;;;;;4983484;28;20257;-52
2021/01/31 01:08:26;;;;;;;18.23;10.13;;;-5.70;99.90;;;;;;4979755;28;20189;-59
2021/01/31 01:10:51;;;;;;;13.73;9.40;;;-5.70;99.90;;;;;;4983002;28;20678;-59
2021/01/31 01:13:17;;;;;;;15.23;8.67;;;-5.70;99.90;;;;;;4971227;28;20193;-55
2021/01/31 01:15:42;;;;;;;16.30;9.43;;;-5.80;99.90;;;;;;4984769;28;20244;-51
2021/01/31 01:18:08;;;;;;;17.07;9.20;;;-5.90;99.90;;;;;;4983002;28;20185;-57
2021/01/31 01:20:33;;;;;;;16.67;9.87;;;-5.90;99.90;;;;;;4978502;28;20296;-53
2021/01/31 01:22:58;;;;;;;15.83;8.87;;;-5.90;99.90;;;;;;4983671;28;20185;-54
2021/01/31 01:25:25;;;;;;;16.23;9.43;;;-5.90;99.90;;;;;;4984458;28;20272;-55
2021/01/31 01:27:51;;;;;;;14.23;9.13;;;-6.00;99.90;;;;;;4978960;28;20263;-53
2021/01/31 01:30:20;;;;;;;16.27;10.07;;;-6.10;99.90;;;;;;4985890;28;20295;-52
2021/01/31 01:32:45;;;;;;;17.23;9.47;;;-6.10;99.90;;;;;;4982353;28;20397;-55
2021/01/31 01:35:12;;;;;;;17.77;9.63;;;-6.10;99.90;;;;;;4984629;28;20267;-55
2021/01/31 01:37:38;;;;;;;16.47;9.27;;;-6.10;99.90;;;;;;4975296;28;20184;-56
2021/01/31 01:40:07;;;;;;;14.83;9.27;;;-6.10;99.90;;;;;;4985183;28;20205;-56
2021/01/31 01:42:33;;;;;;;14.70;8.90;;;-6.10;99.90;;;;;;4977016;28;20345;-57
2021/01/31 01:44:58;;;;;;;14.73;8.77;;;-6.10;99.90;;;;;;4984214;28;20188;-55
2021/01/31 01:47:27;;;;;;;16.23;9.30;;;-6.10;99.90;;;;;;4981078;28;20185;-55
2021/01/31 01:49:59;;;;;;;17.43;8.67;;;-6.20;99.90;;;;;;4982835;28;20205;-53
2021/01/31 01:52:33;;;;;;;18.57;9.30;;;-6.20;99.90;;;;;;4977773;28;20194;-57
2021/01/31 01:55:07;;;;;;;15.20;9.57;;;-6.10;99.90;;;;;;4982864;28;20266;-58
2021/01/31 01:57:44;;;;;;;14.40;9.10;;;-6.20;99.90;;;;;;4968034;28;20885;-55
2021/01/31 02:00:10;;;;;;;13.97;8.23;;;-6.20;99.90;;;;;;4988721;28;20209;-53
2021/01/31 02:02:40;;;;;;;16.47;9.43;;;-6.20;99.90;;;;;;4979950;28;20403;-55
2021/01/31 02:05:11;;;;;;;18.30;9.23;;;-6.20;99.90;;;;;;4975800;28;20732;-57
2021/01/31 02:07:37;;;;;;;18.43;9.13;;;-6.10;99.90;;;;;;4980061;28;20189;-53
2021/01/31 02:10:05;;;;;;;17.63;9.27;;;-6.10;99.90;;;;;;4981575;28;20216;-55
2021/01/31 02:12:31;;;;;;;15.47;8.80;;;-6.00;99.90;;;;;;4967637;28;20951;-56
2021/01/31 02:15:00;;;;;;;14.10;9.33;;;-6.10;99.90;;;;;;4991088;28;20215;-54
2021/01/31 02:17:59;;;;;;;17.53;9.27;;;-6.00;99.90;;;;;;4981190;28;20273;-54
2021/01/31 02:20:36;;;;;;;12.93;8.07;;;-6.00;99.90;;;;;;4965004;28;20254;-58
2021/01/31 02:23:23;;;;;;;14.17;8.47;;;-6.00;99.90;;;;;;4982465;28;20188;-54
2021/01/31 02:26:01;;;;;;;14.73;9.23;;;-6.10;99.90;;;;;;4982024;28;20203;-54
2021/01/31 02:28:50;;;;;;;15.50;8.53;;;-6.20;99.90;;;;;;4967366;28;20203;-58
2021/01/31 02:31:45;;;;;;;16.07;9.50;;;-6.20;99.90;;;;;;4981568;28;20198;-57
2021/01/31 02:34:27;;;;;;;16.93;9.73;;;-6.20;99.90;;;;;;4981694;28;20210;-57
2021/01/31 02:37:21;;;;;;;14.90;9.90;;;-6.20;99.90;;;;;;4985591;28;20597;-55
2021/01/31 02:40:02;;;;;;;15.73;8.30;;;-6.20;99.90;;;;;;4985029;28;20381;-57
2021/01/31 02:42:36;;;;;;;17.80;9.37;;;-6.20;99.90;;;;;;4973982;28;20777;-59
2021/01/31 02:45:21;;;;;;;17.83;9.80;;;-6.30;99.90;;;;;;4986548;28;20231;-56
2021/01/31 02:48:00;;;;;;;14.93;9.27;;;-6.30;99.90;;;;;;4981785;28;20360;-56
2021/01/31 02:50:34;;;;;;;12.10;8.77;;;-6.30;99.90;;;;;;4981529;28;20229;-55
2021/01/31 02:53:05;;;;;;;13.50;9.20;;;-6.30;99.90;;;;;;4985931;28;20531;-53
2021/01/31 02:55:44;;;;;;;21.13;10.47;;;-6.20;99.90;;;;;;4981372;28;20899;-52
2021/01/31 02:58:34;;;;;;;15.90;10.23;;;-6.20;99.90;;;;;;4979453;28;20269;-53
2021/01/31 03:01:15;;;;;;;17.87;9.70;;;-6.20;99.90;;;;;;4984223;28;20228;-52
2021/01/31 03:03:58;;;;;;;14.80;9.87;;;-6.20;99.90;;;;;;4989178;28;20629;-55
2021/01/31 03:06:28;;;;;;;18.17;9.27;;;-6.20;99.90;;;;;;4980201;28;20190;-55
2021/01/31 03:09:01;;;;;;;15.57;9.33;;;-6.20;99.90;;;;;;4987560;28;20669;-55
2021/01/31 03:11:37;;;;;;;17.27;10.13;;;-6.20;99.90;;;;;;4988968;28;20333;-54
2021/01/31 03:14:13;;;;;;;20.47;9.90;;;-6.10;99.90;;;;;;4986310;28;20209;-52
2021/01/31 03:16:50;;;;;;;18.20;9.80;;;-6.10;99.90;;;;;;4985368;28;20506;-51
2021/01/31 03:19:34;;;;;;;15.60;9.40;;;-6.10;99.90;;;;;;4980809;28;20232;-57
2021/01/31 03:22:03;;;;;;;19.00;10.07;;;-6.10;99.90;;;;;;4985280;28;20502;-51
2021/01/31 03:24:34;;;;;;;16.30;8.93;;;-6.10;99.90;;;;;;4980716;28;20553;-52
2021/01/31 03:27:11;;;;;;;13.53;8.83;;;-6.10;99.90;;;;;;4985143;28;20182;-53
2021/01/31 03:29:37;;;;;;;15.53;9.63;;;-6.00;99.90;;;;;;4972335;28;20207;-53
2021/01/31 03:32:09;;;;;;;14.80;9.33;;;-6.00;99.90;;;;;;4990938;28;20192;-54
2021/01/31 03:34:54;;;;;;;14.93;9.17;;;-5.90;99.90;;;;;;4980878;28;20209;-52
2021/01/31 03:37:23;;;;;;;16.07;9.00;;;-5.90;99.90;;;;;;4984546;28;20284;-54
2021/01/31 03:39:50;;;;;;;19.30;9.07;;;-5.90;99.90;;;;;;4984743;28;20198;-52
2021/01/31 03:42:16;;;;;;;13.00;8.47;;;-5.90;99.90;;;;;;4990708;28;20187;-58
2021/01/31 03:44:43;;;;;;;15.73;9.27;;;-5.90;99.90;;;;;;4987343;28;20185;-51
2021/01/31 03:47:25;;;;;;;18.90;8.90;;;-5.80;99.90;;;;;;4974170;28;20669;-56
2021/01/31 03:49:55;;;;;;;13.27;8.33;;;-5.80;99.90;;;;;;4985781;28;20209;-51
2021/01/31 03:52:23;;;;;;;13.40;7.47;;;-5.80;99.90;;;;;;4981775;28;20210;-58
2021/01/31 03:54:48;;;;;;;13.40;7.80;;;-5.80;99.90;;;;;;4983964;28;20600;-54
2021/01/31 03:57:22;;;;;;;15.43;9.10;;;-5.80;99.90;;;;;;4983436;28;20187;-55
2021/01/31 03:59:55;;;;;;;16.30;8.40;;;-5.70;99.90;;;;;;4984430;28;20291;-57
2021/01/31 04:02:27;;;;;;;13.13;8.03;;;-5.80;99.90;;;;;;4975532;28;20193;-53
2021/01/31 04:04:53;;;;;;;12.97;8.03;;;-5.70;99.90;;;;;;4989375;28;20183;-59
2021/01/31 04:07:24;;;;;;;15.43;8.50;;;-5.70;99.90;;;;;;4978807;28;20289;-55
2021/01/31 04:09:51;;;;;;;14.73;8.80;;;-5.70;99.90;;;;;;4983227;28;20266;-52
2021/01/31 04:12:22;;;;;;;14.20;8.90;;;-5.70;99.90;;;;;;4987128;28;20186;-55
2021/01/31 04:14:53;;;;;;;13.47;8.27;;;-5.70;99.90;;;;;;4978945;28;20219;-57
2021/01/31 04:17:19;;;;;;;14.17;8.43;;;-5.60;99.90;;;;;;4975985;28;20328;-55
2021/01/31 04:19:45;;;;;;;13.97;8.57;;;-5.60;99.90;;;;;;4988217;28;20665;-58
2021/01/31 04:22:11;;;;;;;14.43;8.53;;;-5.60;99.90;;;;;;4980870;28;20394;-54
2021/01/31 04:24:36;;;;;;;16.60;8.90;;;-5.60;99.90;;;;;;4984080;28;20253;-54
2021/01/31 04:27:02;;;;;;;15.70;7.80;;;-5.60;99.90;;;;;;4979748;28;20182;-55
2021/01/31 04:29:27;;;;;;;15.87;9.40;;;-5.60;99.90;;;;;;4983953;28;20201;-49
2021/01/31 04:31:53;;;;;;;14.63;8.80;;;-5.60;99.90;;;;;;4981647;28;20666;-55
2021/01/31 04:34:18;;;;;;;18.07;9.97;;;-5.60;99.90;;;;;;4983422;28;20216;-53
2021/01/31 04:36:44;;;;;;;17.47;8.83;;;-5.60;99.90;;;;;;4985430;28;20274;-55
2021/01/31 04:39:10;;;;;;;17.40;9.37;;;-5.60;99.90;;;;;;4979958;28;20869;-57
2021/01/31 04:41:38;;;;;;;15.00;9.33;;;-5.50;99.90;;;;;;4991625;28;20189;-53
2021/01/31 04:44:06;;;;;;;15.77;9.73;;;-5.50;99.90;;;;;;4981328;28;20725;-54
2021/01/31 04:46:48;;;;;;;16.37;9.13;;;-5.50;99.90;;;;;;4989691;28;20193;-56
2021/01/31 04:49:37;;;;;;;15.67;9.20;;;-5.50;99.90;;;;;;4970381;28;20503;-50
2021/01/31 04:52:28;;;;;;;15.27;9.33;;;-5.50;99.90;;;;;;4980203;28;20205;-57
2021/01/31 04:55:06;;;;;;;17.80;9.73;;;-5.40;99.90;;;;;;4981083;28;20244;-59
2021/01/31 04:57:40;;;;;;;17.57;9.00;;;-5.40;99.90;;;;;;4983752;28;20264;-56
2021/01/31 05:00:12;;;;;;;16.27;9.87;;;-5.40;99.90;;;;;;4978714;28;20204;-54
2021/01/31 05:02:42;;;;;;;15.90;9.43;;;-5.40;99.90;;;;;;4976009;28;20204;-54
2021/01/31 05:05:30;;;;;;;19.17;10.37;;;-5.30;99.90;;;;;;4978653;28;20205;-53
2021/01/31 05:07:58;;;;;;;18.33;9.70;;;-5.30;99.90;;;;;;4978502;28;20192;-52
2021/01/31 05:10:25;;;;;;;17.30;9.63;;;-5.30;99.90;;;;;;4980415;28;20206;-59
2021/01/31 05:13:21;;;;;;;18.93;10.20;;;-5.30;99.90;;;;;;4983363;28;20185;-54
2021/01/31 05:16:01;;;;;;;19.73;11.20;;;-5.30;99.90;;;;;;4984746;28;20185;-56
2021/01/31 05:18:27;;;;;;;16.83;10.03;;;-5.30;99.90;;;;;;4979975;28;20243;-58
2021/01/31 05:20:57;;;;;;;18.40;10.30;;;-5.30;99.90;;;;;;4974097;28;20240;-52
2021/01/31 05:23:23;;;;;;;21.10;10.03;;;-5.20;99.90;;;;;;4975857;28;20201;-58
2021/01/31 05:25:49;;;;;;;16.83;10.20;;;-5.30;99.90;;;;;;4982699;28;20727;-54
2021/01/31 05:28:14;;;;;;;17.07;10.30;;;-5.20;99.90;;;;;;4982116;28;20196;-57
2021/01/31 05:30:46;;;;;;;17.03;9.97;;;-5.20;99.90;;;;;;4980591;28;20613;-53
2021/01/31 05:33:17;;;;;;;17.40;9.97;;;-5.20;99.90;;;;;;4982809;28;20555;-58
2021/01/31 05:35:49;;;;;;;20.23;10.73;;;-5.20;99.90;;;;;;4973289;28;20453;-57
2021/01/31 05:38:40;;;;;;;18.63;10.87;;;-5.10;99.90;;;;;;4978498;28;20710;-57
2021/01/31 05:41:45;;;;;;;18.17;10.07;;;-5.20;99.90;;;;;;4983670;28;20198;-57
2021/01/31 05:44:14;;;;;;;19.00;10.60;;;-5.10;99.90;;;;;;4983236;28;20257;-58
2021/01/31 05:46:46;;;;;;;20.23;10.03;;;-5.00;99.90;;;;;;4988789;28;20213;-56
2021/01/31 05:49:30;;;;;;;19.20;10.37;;;-5.00;99.90;;;;;;4978232;28;20220;-56
2021/01/31 05:51:57;;;;;;;17.13;10.10;;;-5.00;99.90;;;;;;4972628;28;20548;-53
2021/01/31 05:54:29;;;;;;;18.80;10.50;;;-4.90;99.90;;;;;;4975956;28;20533;-57
2021/01/31 05:56:56;;;;;;;16.57;9.90;;;-4.90;99.90;;;;;;4983064;28;20289;-52
2021/01/31 05:59:21;;;;;;;18.87;11.37;;;-4.90;99.90;;;;;;4980172;28;20599;-57
2021/01/31 06:01:52;;;;;;;17.83;9.83;;;-4.80;99.90;;;;;;4982148;28;20165;-55
2021/01/31 06:04:21;;;;;;;20.90;11.03;;;-4.80;99.90;;;;;;4981297;28;20701;-56
2021/01/31 06:06:47;;;;;;;17.30;9.77;;;-4.80;99.90;;;;;;4977150;28;20228;-54
2021/01/31 06:09:20;;;;;;;20.40;11.20;;;-4.70;99.90;;;;;;4985316;28;20193;-56
2021/01/31 06:11:48;;;;;;;19.97;10.07;;;-4.60;99.90;;;;;;4986327;28;20186;-56
2021/01/31 06:14:14;;;;;;;20.10;11.13;;;-4.60;99.90;;;;;;4987957;28;20179;-53
2021/01/31 06:16:41;;;;;;;17.03;10.07;;;-4.60;99.90;;;;;;4986427;28;20206;-51
2021/01/31 06:19:28;;;;;;;21.67;11.10;;;-4.50;99.90;;;;;;4986774;28;20295;-50
2021/01/31 06:21:53;;;;;;;21.00;11.50;;;-4.50;99.90;;;;;;4975354;28;20196;-52
2021/01/31 06:24:20;;;;;;;21.80;10.50;;;-4.40;99.90;;;;;;4980482;28;20230;-59
2021/01/31 06:26:46;;;;;;;17.23;10.20;;;-4.40;99.90;;;;;;4982322;28;20182;-55
2021/01/31 06:29:23;;;;;;;19.90;10.80;;;-4.40;99.90;;;;;;4985906;28;20202;-57
2021/01/31 06:32:09;;;;;;;19.23;11.20;;;-4.40;99.90;;;;;;4981352;28;20177;-55
2021/01/31 06:34:35;;;;;;;19.50;11.13;;;-4.40;99.90;;;;;;4983311;28;20190;-52
2021/01/31 06:37:23;;;;;;;20.10;10.37;;;-4.30;99.90;;;;;;4986865;28;20221;-55
2021/01/31 06:40:13;;;;;;;22.27;11.30;;;-4.30;99.90;;;;;;4989133;28;20218;-55
2021/01/31 06:42:46;;;;;;;17.80;10.13;;;-4.30;99.90;;;;;;4982667;28;20257;-53
2021/01/31 06:45:27;;;;;;;21.97;11.70;;;-4.30;99.90;;;;;;4985476;28;20296;-56
2021/01/31 06:48:17;;;;;;;19.47;10.53;;;-4.30;99.90;;;;;;4985554;28;20761;-52
2021/01/31 06:50:51;;;;;;;18.57;10.97;;;-4.20;99.90;;;;;;4983853;28;20210;-50
2021/01/31 06:53:22;;;;;;;18.80;10.67;;;-4.20;99.90;;;;;;4979968;28;20185;-57
2021/01/31 06:56:09;;;;;;;20.50;10.53;;;-4.20;99.90;;;;;;4983883;28;20238;-50
2021/01/31 06:58:46;;;;;;;18.07;11.40;;;-4.20;99.90;;;;;;4982413;28;20326;-52
2021/01/31 07:01:29;;;;;;;20.07;10.30;;;-4.20;99.90;;;;;;4985793;28;20210;-55
2021/01/31 07:04:02;;;;;;;17.13;10.93;;;-4.20;99.90;;;;;;4983551;28;20611;-55
2021/01/31 07:06:36;;;;;;;21.57;11.10;;;-4.10;99.90;;;;;;4983902;28;20864;-54
2021/01/31 07:09:45;;;;;;;21.37;11.00;;;-4.10;99.90;;;;;;4982102;28;20180;-51
2021/01/31 07:12:25;;;;;;;21.83;10.90;;;-4.00;99.90;;;;;;4978096;28;20620;-57
2021/01/31 07:15:07;;;;;;;16.70;9.97;;;-4.00;99.90;;;;;;4974007;28;20251;-56
2021/01/31 07:17:36;;;;;;;14.60;9.10;;;-4.00;99.90;;;;;;4983302;28;20174;-57
2021/01/31 07:20:07;;;;;;;18.93;10.10;;;-4.00;99.90;;;;;;4985296;28;20215;-54
2021/01/31 07:22:37;;;;;;;17.47;9.43;;;-3.90;99.90;;;;;;4977320;28;20192;-57
2021/01/31 07:25:14;;;;;;;14.90;8.83;;;-3.90;99.90;;;;;;4974637;28;20214;-49
2021/01/31 07:28:08;;;;;;;18.83;10.10;;;-3.90;99.90;;;;;;4984559;28;20195;-56
2021/01/31 07:30:44;;;;;;;15.87;9.27;;;-3.90;99.90;;;;;;4979944;28;20204;-56
2021/01/31 07:33:12;;;;;;;17.00;9.43;;;-3.80;99.90;;;;;;4979606;28;20924;-49
2021/01/31 07:36:17;;;;;;;18.30;10.47;;;-3.80;99.90;;;;;;4985192;28;20191;-58
2021/01/31 07:39:07;;;;;;;16.20;9.70;;;-3.70;99.90;;;;;;4971109;28;20234;-58
2021/01/31 07:41:33;;;;;;;15.53;9.53;;;-3.60;99.90;;;;;;4978159;28;20189;-55
2021/01/31 07:44:05;;;;;;;19.57;9.97;;;-3.60;99.90;;;;;;4982075;28;20249;-55
2021/01/31 07:46:30;;;;;;;16.67;9.10;;;-3.60;99.90;;;;;;4985493;28;20604;-55
2021/01/31 07:49:02;;;;;;;15.73;9.03;;;-3.50;99.90;;;;;;4978023;28;20272;-57
2021/01/31 07:51:36;;;;;;;15.93;9.17;;;-3.50;99.90;;;;;;4984609;28;20189;-54
2021/01/31 07:54:20;;;;;;;16.90;9.63;;;-3.50;99.90;;;;;;4981400;28;20278;-54
2021/01/31 07:56:46;;;;;;;14.43;8.97;;;-3.40;99.90;;;;;;4992115;28;20506;-54
2021/01/31 07:59:12;;;;;;;17.27;9.47;;;-3.30;99.90;;;;;;4978062;28;20182;-57
2021/01/31 08:01:40;;;;;;;13.27;8.33;;;-3.30;99.90;;;;;;4984573;28;20221;-54
2021/01/31 08:04:19;;;;;;;14.50;9.83;;;-3.30;99.90;;;;;;4979920;28;20215;-56
2021/01/31 08:06:49;;;;;;;18.50;8.83;;;-3.20;99.90;;;;;;4985460;28;20542;-50
2021/01/31 08:09:27;;;;;;;15.83;8.47;;;-3.20;99.90;;;;;;4969190;28;20279;-55
2021/01/31 08:12:04;;;;;;;21.70;9.47;;;-3.10;99.90;;;;;;4982180;28;20238;-56
2021/01/31 08:15:00;;;;;;;15.53;8.63;;;-3.10;99.90;;;;;;4982255;28;20920;-53
2021/01/31 08:17:42;;;;;;;17.47;8.67;;;-3.10;99.90;;;;;;4982019;28;20263;-52
2021/01/31 08:20:17;;;;;;;17.97;8.93;;;-3.00;99.90;;;;;;4978805;28;20631;-55
2021/01/31 08:22:43;;;;;;;17.13;9.17;;;-3.00;99.90;;;;;;4985132;28;20184;-51
2021/01/31 08:25:10;;;;;;;15.77;9.47;;;-2.90;99.90;;;;;;4973298;28;20241;-54
2021/01/31 08:27:40;;;;;;;15.47;9.43;;;-2.90;99.90;;;;;;4980817;28;20186;-51
2021/01/31 08:30:30;;;;;;;14.67;9.23;;;-2.80;99.90;;;;;;4971535;28;20213;-55
2021/01/31 08:33:01;;;;;;;17.07;7.93;;;-2.70;99.90;;;;;;4974989;28;20269;-51
2021/01/31 08:35:38;;;;;;;16.37;9.40;;;-2.70;99.90;;;;;;4973726;28;21855;-55
2021/01/31 08:38:19;;;;;;;15.67;8.93;;;-2.60;99.90;;;;;;4975286;28;20185;-58
2021/01/31 08:41:05;;;;;;;14.57;7.87;;;-2.60;99.90;;;;;;4969361;28;20213;-51
2021/01/31 08:43:49;;;;;;;15.00;8.30;;;-2.50;99.90;;;;;;4977899;28;20170;-52
2021/01/31 08:46:32;;;;;;;14.67;7.67;;;-2.40;99.90;;;;;;4978879;28;20181;-58
2021/01/31 08:49:09;;;;;;;15.07;8.27;;;-2.20;99.90;;;;;;4985245;28;20216;-58
2021/01/31 08:51:37;;;;;;;13.10;7.27;;;-2.10;99.90;;;;;;4982683;28;20177;-57
2021/01/31 08:54:10;;;;;;;10.97;7.17;;;-2.00;99.90;;;;;;4982668;28;20181;-56
2021/01/31 08:56:45;;;;;;;13.77;8.10;;;-2.00;99.90;;;;;;4974596;28;20954;-50
2021/01/31 08:59:18;;;;;;;13.20;7.13;;;-1.90;99.90;;;;;;4977708;28;20557;-59
2021/01/31 09:01:54;;;;;;;10.93;5.63;;;-1.80;99.90;;;;;;4982905;28;20264;-52
2021/01/31 09:04:20;;;;;;;9.37;6.17;;;-1.70;99.90;;;;;;4980613;28;20211;-59
2021/01/31 09:06:48;;;;;;;11.37;6.50;;;-1.60;99.90;;;;;;4980013;28;20638;-56
2021/01/31 09:09:30;;;;;;;10.23;5.90;;;-1.60;99.90;;;;;;4978842;28;20264;-57
2021/01/31 09:12:05;;;;;;;10.63;5.53;;;-1.50;99.90;;;;;;4976795;28;20185;-59
2021/01/31 09:14:33;;;;;;;9.60;5.63;;;-1.50;99.90;;;;;;4980908;28;20181;-58
2021/01/31 09:17:10;;;;;;;10.83;6.07;;;-1.40;99.90;;;;;;4984540;28;20191;-58
2021/01/31 09:19:37;;;;;;;10.07;5.67;;;-1.30;99.90;;;;;;4982773;28;20209;-56
2021/01/31 09:22:07;;;;;;;7.83;5.37;;;-1.30;99.90;;;;;;4976999;28;20190;-57
2021/01/31 09:24:38;;;;;;;6.60;4.00;;;-1.30;99.90;;;;;;4978086;28;20951;-58
2021/01/31 09:27:05;;;;;;;6.63;4.20;;;-1.40;99.90;;;;;;4978165;28;20595;-56
2021/01/31 09:29:32;;;;;;;8.87;4.97;;;-1.50;99.90;;;;;;4983533;28;20192;-59
2021/01/31 09:32:03;;;;;;;7.33;4.80;;;-1.40;99.90;;;;;;4985112;28;20649;-58
2021/01/31 09:34:29;;;;;;;9.07;4.63;;;-1.40;99.90;;;;;;4982787;28;20288;-58
2021/01/31 09:37:19;;;;;;;8.23;4.80;;;-1.40;99.90;;;;;;4981126;28;20697;-59
2021/01/31 09:39:44;;;;;;;6.90;4.80;;;-1.40;99.90;;;;;;4985127;28;20193;-57
2021/01/31 09:42:10;;;;;;;8.30;5.10;;;-1.30;99.90;;;;;;4972777;28;20557;-55
2021/01/31 09:44:36;;;;;;;10.03;4.63;;;-1.30;99.90;;;;;;4981358;28;20241;-57
2021/01/31 09:47:04;;;;;;;9.30;5.17;;;-1.20;99.90;;;;;;4988896;28;20276;-56
2021/01/31 09:49:30;;;;;;;9.23;4.87;;;-1.10;99.90;;;;;;4972929;28;20233;-55
2021/01/31 09:52:08;;;;;;;7.47;4.53;;;-1.00;99.90;;;;;;4979926;28;20685;-53
2021/01/31 09:54:35;;;;;;;5.57;4.67;;;-1.00;99.90;;;;;;4980204;28;20397;-56
2021/01/31 09:57:05;;;;;;;8.37;5.27;;;-1.00;99.90;;;;;;4974024;28;20199;-58
2021/01/31 09:59:32;;;;;;;7.57;5.03;;;-0.90;99.90;;;;;;4974213;28;20252;-54
2021/01/31 10:02:11;;;;;;;9.27;6.80;;;-0.90;99.90;;;;;;4993228;28;20424;-56
2021/01/31 10:04:39;;;;;;;8.33;5.33;;;-0.80;99.90;;;;;;4985858;28;20212;-55
2021/01/31 10:07:10;;;;;;;9.63;5.77;;;-0.70;99.90;;;;;;4973791;28;20272;-58
2021/01/31 10:09:38;;;;;;;11.03;5.90;;;-0.80;99.90;;;;;;4983883;28;20193;-57
2021/01/31 10:12:30;;;;;;;8.97;5.07;;;-0.80;99.90;;;;;;4983966;28;20209;-55
2021/01/31 10:15:06;;;;;;;9.00;5.10;;;-0.90;99.90;;;;;;4984178;28;20553;-57
2021/01/31 10:17:45;;;;;;;8.67;5.77;;;-0.90;99.90;;;;;;4996511;28;20497;-60
2021/01/31 10:20:28;;;;;;;7.40;5.77;;;-1.00;99.90;;;;;;4985239;28;20228;-56
2021/01/31 10:23:05;;;;;;;6.80;4.40;;;-1.10;99.90;;;;;;4984872;28;20190;-51
2021/01/31 10:25:36;;;;;;;9.90;5.63;;;-1.10;99.90;;;;;;4984955;28;20201;-53
2021/01/31 10:28:04;;;;;;;11.40;5.83;;;-1.10;99.90;;;;;;4983732;28;20638;-56
2021/01/31 10:30:36;;;;;;;11.77;6.17;;;-1.10;99.90;;;;;;4984748;28;20205;-53
2021/01/31 10:33:01;;;;;;;10.77;6.07;;;-1.10;99.90;;;;;;4987622;28;20196;-57
2021/01/31 10:35:36;;;;;;;6.90;4.80;;;-1.10;99.90;;;;;;4989205;28;20173;-50
2021/01/31 10:38:32;;;;;;;9.17;5.87;;;-1.10;99.90;;;;;;4967814;28;20315;-46
2021/01/31 10:40:59;;;;;;;8.87;5.47;;;-1.00;99.90;;;;;;4984583;28;20288;-50
2021/01/31 10:43:26;;;;;;;9.77;5.87;;;-1.00;99.90;;;;;;4980554;28;20198;-57
2021/01/31 10:45:55;;;;;;;9.23;6.43;;;-1.00;99.90;;;;;;4980156;28;20843;-57
2021/01/31 10:48:20;;;;;;;9.00;5.13;;;-0.90;99.90;;;;;;4998530;28;20174;-54
2021/01/31 10:50:46;;;;;;;11.00;5.27;;;-0.90;99.90;;;;;;4987432;28;20268;-53
2021/01/31 10:53:11;;;;;;;10.67;6.10;;;-0.90;99.90;;;;;;4986428;28;20235;-53
2021/01/31 10:55:37;;;;;;;7.10;5.00;;;-0.80;99.90;;;;;;4976447;28;20202;-54
2021/01/31 10:58:03;;;;;;;9.40;5.67;;;-0.70;99.90;;;;;;4979514;28;20260;-56
2021/01/31 11:00:28;;;;;;;12.47;6.30;;;-0.70;99.90;;;;;;4974598;28;20712;-53
2021/01/31 11:02:54;;;;;;;12.27;6.90;;;-0.60;99.90;;;;;;4982948;28;20201;-53
2021/01/31 11:05:21;;;;;;;11.03;6.47;;;-0.50;99.90;;;;;;4986487;28;20209;-47
2021/01/31 11:07:47;;;;;;;9.73;6.00;;;-0.40;99.90;;;;;;4972273;28;20206;-50
2021/01/31 11:10:13;;;;;;;10.87;5.67;;;-0.30;99.90;;;;;;4987531;28;20577;-47
2021/01/31 11:12:39;;;;;;;10.83;6.57;;;-0.20;99.90;;;;;;4982784;28;20205;-53
2021/01/31 11:15:07;;;;;;;8.37;5.83;;;-0.10;99.90;;;;;;4978883;28;20189;-51
2021/01/31 11:17:33;;;;;;;10.90;6.47;;;-0.20;99.90;;;;;;4972704;28;20198;-54
2021/01/31 11:19:58;;;;;;;11.37;6.60;;;-0.10;99.90;;;;;;4983639;28;20209;-52
2021/01/31 11:22:23;;;;;;;9.27;6.00;;;-0.10;99.90;;;;;;4983118;28;20190;-55
2021/01/31 11:24:49;;;;;;;10.57;6.63;;;0.00;99.90;;;;;;4975457;28;20213;-50
2021/01/31 11:27:14;;;;;;;8.77;5.63;;;0.10;99.90;;;;;;4983428;28;20272;-55
2021/01/31 11:29:40;;;;;;;11.20;6.20;;;0.30;99.90;;;;;;4973314;28;20221;-53
2021/01/31 11:32:06;;;;;;;11.67;6.47;;;0.40;99.90;;;;;;4965605;28;20194;-49
2021/01/31 11:34:32;;;;;;;11.07;6.30;;;0.50;99.90;;;;;;4988085;28;20598;-54
2021/01/31 11:36:58;;;;;;;11.73;6.20;;;0.50;99.90;;;;;;4986045;28;20265;-49
2021/01/31 11:39:23;;;;;;;9.20;5.63;;;0.60;99.90;;;;;;4977815;28;20304;-54
2021/01/31 11:41:49;;;;;;;10.77;6.47;;;0.60;99.90;;;;;;4984236;28;20189;-50
2021/01/31 11:44:14;;;;;;;8.50;5.83;;;0.60;99.90;;;;;;4990091;28;20309;-53
2021/01/31 11:46:41;;;;;;;9.33;6.33;;;0.60;99.90;;;;;;4981139;28;20865;-53
2021/01/31 11:49:07;;;;;;;10.50;6.57;;;0.70;99.90;;;;;;4971157;28;20729;-52
2021/01/31 11:51:32;;;;;;;11.03;7.00;;;0.80;99.90;;;;;;4980879;28;20180;-55
2021/01/31 11:53:58;;;;;;;9.67;6.07;;;0.80;99.90;;;;;;4979407;28;20203;-50
2021/01/31 11:56:24;;;;;;;8.80;5.73;;;0.80;99.90;;;;;;4969648;28;20334;-56
2021/01/31 11:58:50;;;;;;;10.20;6.90;;;0.90;99.90;;;;;;4989980;28;20172;-53
2021/01/31 12:01:15;;;;;;;10.13;6.13;;;0.90;99.90;;;;;;4983520;28;20203;-53
2021/01/31 12:03:45;;;;;;;8.10;6.03;;;0.90;99.90;;;;;;4970203;28;20195;-49
2021/01/31 12:06:11;;;;;;;8.20;5.93;;;1.00;99.90;;;;;;4992439;28;20227;-51
2021/01/31 12:08:38;;;;;;;7.17;6.10;;;1.00;99.90;;;;;;4980303;28;20206;-50
2021/01/31 12:11:03;;;;;;;9.50;6.20;;;1.00;99.90;;;;;;4979328;28;20214;-53
2021/01/31 12:13:29;;;;;;;210.87;97.23;;;1.00;99.90;;;;;;4983677;28;20252;-55
2021/01/31 12:15:54;;;;;;;193.83;86.57;;;1.00;99.90;;;;;;4991864;28;20178;-51
2021/01/31 12:18:20;;;;;;;101.40;52.67;;;1.00;99.90;;;;;;4969735;28;20589;-57
2021/01/31 12:20:46;;;;;;;70.13;46.77;;;1.10;99.90;;;;;;4984906;28;20227;-51
2021/01/31 12:23:11;;;;;;;12.70;10.80;;;1.10;99.90;;;;;;4983586;28;20217;-51
2021/01/31 12:25:36;;;;;;;14.27;12.77;;;1.10;99.90;;;;;;4970404;28;20215;-48
2021/01/31 12:28:02;;;;;;;30.30;23.00;;;1.00;99.90;;;;;;4989270;28;20633;-53
2021/01/31 12:30:31;;;;;;;24.93;14.93;;;1.00;99.90;;;;;;4983263;28;20265;-55
2021/01/31 12:32:57;;;;;;;11.53;7.97;;;1.00;99.90;;;;;;4985326;28;20193;-55
2021/01/31 12:35:24;;;;;;;10.57;6.90;;;1.00;99.90;;;;;;4984856;28;20206;-54
2021/01/31 12:37:49;;;;;;;9.47;6.13;;;0.90;99.90;;;;;;4991670;28;20267;-57
2021/01/31 12:40:16;;;;;;;10.83;6.73;;;0.90;99.90;;;;;;4978638;28;20293;-54
2021/01/31 12:42:46;;;;;;;9.17;6.17;;;0.90;99.90;;;;;;4984416;28;20214;-57
2021/01/31 12:45:13;;;;;;;10.03;6.03;;;1.00;99.90;;;;;;4983426;28;20226;-53
2021/01/31 12:47:39;;;;;;;8.07;5.47;;;1.00;99.90;;;;;;4981668;28;20257;-56
2021/01/31 12:50:05;;;;;;;7.80;5.70;;;1.10;99.90;;;;;;4979810;28;20310;-55
2021/01/31 12:52:31;;;;;;;9.43;6.13;;;1.10;99.90;;;;;;4985384;28;20195;-57
2021/01/31 12:54:56;;;;;;;10.00;6.30;;;1.10;99.90;;;;;;4986883;28;20188;-52
2021/01/31 12:57:23;;;;;;;10.80;6.07;;;1.20;99.90;;;;;;4975541;28;20310;-58
2021/01/31 12:59:49;;;;;;;11.73;6.73;;;1.20;99.90;;;;;;4981386;28;20241;-56